createdAt,value
2018-08-25T00:01:26.541Z,13.15
2018-08-25T00:03:55.130Z,13.13
2018-08-25T00:06:23.611Z,13.18
2018-08-25T00:08:52.266Z,12.96
2018-08-25T00:11:20.754Z,12.85
2018-08-25T00:13:49.478Z,12.69
2018-08-25T00:16:18.108Z,12.89
2018-08-25T00:18:46.602Z,12.66
2018-08-25T00:21:15.131Z,12.79
2018-08-25T00:23:43.760Z,12.74
2018-08-25T00:26:12.470Z,12.59
2018-08-25T00:28:40.952Z,12.46
2018-08-25T00:31:14.892Z,12.47
2018-08-25T00:33:43.543Z,12.41
2018-08-25T00:36:12.447Z,12.35
2018-08-25T00:41:08.399Z,12.52
2018-08-25T00:43:36.946Z,12.45
2018-08-25T00:46:05.541Z,12.35
2018-08-25T00:48:34.166Z,12.21
2018-08-25T00:51:03.006Z,12.14
2018-08-25T00:53:31.756Z,12.13
2018-08-25T00:56:00.266Z,12.16
2018-08-25T00:58:28.922Z,12.18
2018-08-25T01:00:57.460Z,12.21
2018-08-25T01:03:26.543Z,12.17
2018-08-25T01:05:55.056Z,12.20
2018-08-25T01:08:24.021Z,12.22
2018-08-25T01:10:52.506Z,12.22
2018-08-25T01:13:21.186Z,12.26
2018-08-25T01:15:49.735Z,12.31
2018-08-25T01:18:18.278Z,12.31
2018-08-25T01:20:48.669Z,12.23
2018-08-25T01:23:17.243Z,12.22
2018-08-25T01:25:45.906Z,12.22
2018-08-25T01:28:14.480Z,12.16
2018-08-25T01:30:43.001Z,12.14
2018-08-25T01:33:11.801Z,12.18
2018-08-25T01:35:40.296Z,12.25
2018-08-25T01:38:09.021Z,12.30
2018-08-25T01:40:37.665Z,12.46
2018-08-25T01:43:06.220Z,12.61
2018-08-25T01:45:34.808Z,12.54
2018-08-25T01:48:03.314Z,12.34
2018-08-25T01:50:31.771Z,12.20
2018-08-25T01:53:00.293Z,12.13
2018-08-25T01:55:28.855Z,12.12
2018-08-25T01:57:57.388Z,12.17
2018-08-25T02:00:25.879Z,12.16
2018-08-25T02:02:54.692Z,12.25
2018-08-25T02:05:24.378Z,12.31
2018-08-25T02:07:52.871Z,12.35
2018-08-25T02:10:21.446Z,12.30
2018-08-25T02:12:50.216Z,12.27
2018-08-25T02:15:18.860Z,12.20
2018-08-25T02:17:47.422Z,12.20
2018-08-25T02:20:16.244Z,12.14
2018-08-25T02:22:46.186Z,12.10
2018-08-25T02:25:14.896Z,12.03
2018-08-25T02:27:43.380Z,12.07
2018-08-25T02:30:11.956Z,12.12
2018-08-25T02:32:40.564Z,12.09
2018-08-25T02:35:09.282Z,12.10
2018-08-25T02:37:37.840Z,12.22
2018-08-25T02:40:06.698Z,12.16
2018-08-25T02:42:35.816Z,12.13
2018-08-25T02:45:04.875Z,12.24
2018-08-25T02:47:34.149Z,12.23
2018-08-25T02:50:02.843Z,12.27
2018-08-25T02:52:31.686Z,12.22
2018-08-25T02:55:00.205Z,11.85
2018-08-25T02:57:28.747Z,11.55
2018-08-25T02:59:57.261Z,11.69
2018-08-25T03:02:25.734Z,11.80
2018-08-25T03:04:54.321Z,11.95
2018-08-25T03:07:28.971Z,11.90
2018-08-25T03:09:57.572Z,11.89
2018-08-25T03:12:26.207Z,11.68
2018-08-25T03:14:54.944Z,11.67
2018-08-25T03:17:23.766Z,11.37
2018-08-25T03:19:52.827Z,11.38
2018-08-25T03:22:21.381Z,11.34
2018-08-25T03:24:50.058Z,11.23
2018-08-25T03:27:19.190Z,11.30
2018-08-25T03:29:47.985Z,11.40
2018-08-25T03:32:16.529Z,11.38
2018-08-25T03:34:45.013Z,11.39
2018-08-25T03:37:13.690Z,11.41
2018-08-25T03:39:42.189Z,11.36
2018-08-25T03:42:10.673Z,11.34
2018-08-25T03:44:39.424Z,11.33
2018-08-25T03:47:07.886Z,11.35
2018-08-25T03:49:37.314Z,11.42
2018-08-25T03:52:06.018Z,11.41
2018-08-25T03:54:34.492Z,11.44
2018-08-25T03:57:03.269Z,11.42
2018-08-25T03:59:31.761Z,11.30
2018-08-25T04:02:00.301Z,11.33
2018-08-25T04:04:28.916Z,11.40
2018-08-25T04:06:57.423Z,11.38
2018-08-25T04:09:26.237Z,11.40
2018-08-25T04:11:54.813Z,11.36
2018-08-25T04:14:23.303Z,11.38
2018-08-25T04:16:52.107Z,11.37
2018-08-25T04:19:21.931Z,11.38
2018-08-25T04:21:51.424Z,11.32
2018-08-25T04:24:19.997Z,11.32
2018-08-25T04:26:48.539Z,11.38
2018-08-25T04:29:17.090Z,11.37
2018-08-25T04:31:45.610Z,11.39
2018-08-25T04:34:14.222Z,11.36
2018-08-25T04:36:42.842Z,11.36
2018-08-25T04:39:12.495Z,11.35
2018-08-25T04:41:41.042Z,11.37
2018-08-25T04:44:10.069Z,11.43
2018-08-25T04:46:39.146Z,11.45
2018-08-25T04:49:08.001Z,11.55
2018-08-25T04:51:36.554Z,11.60
2018-08-25T04:54:05.170Z,11.66
2018-08-25T04:56:35.022Z,11.64
2018-08-25T04:59:03.543Z,11.68
2018-08-25T05:01:32.416Z,11.68
2018-08-25T05:04:01.223Z,11.74
2018-08-25T05:06:30.063Z,11.66
2018-08-25T05:08:59.722Z,11.68
2018-08-25T05:11:28.323Z,11.85
2018-08-25T05:13:56.844Z,11.86
2018-08-25T05:16:25.436Z,11.66
2018-08-25T05:18:53.969Z,11.63
2018-08-25T05:21:22.619Z,11.68
2018-08-25T05:23:51.157Z,11.68
2018-08-25T05:26:20.109Z,11.88
2018-08-25T05:28:48.592Z,11.79
2018-08-25T05:31:17.584Z,11.88
2018-08-25T05:33:46.118Z,12.00
2018-08-25T05:36:14.742Z,12.02
2018-08-25T05:38:43.289Z,12.10
2018-08-25T05:41:11.808Z,12.12
2018-08-25T05:43:40.401Z,12.19
2018-08-25T05:46:09.185Z,12.17
2018-08-25T05:48:37.998Z,12.03
2018-08-25T05:51:07.076Z,11.93
2018-08-25T05:53:35.581Z,12.04
2018-08-25T05:56:04.113Z,12.14
2018-08-25T05:58:32.984Z,12.03
2018-08-25T06:01:01.625Z,12.16
2018-08-25T06:03:30.364Z,11.99
2018-08-25T06:05:58.895Z,12.23
2018-08-25T06:08:27.396Z,12.18
2018-08-25T06:10:55.964Z,12.10
2018-08-25T06:13:24.502Z,12.02
2018-08-25T06:15:52.971Z,11.97
2018-08-25T06:18:21.504Z,12.17
2018-08-25T06:20:50.159Z,12.08
2018-08-25T06:23:18.756Z,11.99
2018-08-25T06:25:47.432Z,11.80
2018-08-25T06:28:15.964Z,11.65
2018-08-25T06:30:44.857Z,11.75
2018-08-25T06:33:13.368Z,11.56
2018-08-25T06:35:41.936Z,11.63
2018-08-25T06:38:10.426Z,11.46
2018-08-25T06:40:39.841Z,11.38
2018-08-25T06:43:08.421Z,11.48
2018-08-25T06:45:37.038Z,11.42
2018-08-25T06:48:05.703Z,11.38
2018-08-25T06:50:34.342Z,11.21
2018-08-25T06:53:02.878Z,11.20
2018-08-25T06:55:31.710Z,11.27
2018-08-25T06:58:00.213Z,11.32
2018-08-25T07:00:28.901Z,11.31
2018-08-25T07:02:57.432Z,11.31
2018-08-25T07:05:25.961Z,11.41
2018-08-25T07:07:54.450Z,11.55
2018-08-25T07:10:23.401Z,11.49
2018-08-25T07:12:51.908Z,11.71
2018-08-25T07:15:20.404Z,11.70
2018-08-25T07:17:48.892Z,11.71
2018-08-25T07:20:17.445Z,11.77
2018-08-25T07:22:45.971Z,11.69
2018-08-25T07:25:14.446Z,11.71
2018-08-25T07:27:44.990Z,11.61
2018-08-25T07:30:13.483Z,11.55
2018-08-25T07:32:41.958Z,11.64
2018-08-25T07:35:10.514Z,11.57
2018-08-25T07:37:39.109Z,11.51
2018-08-25T07:40:07.790Z,11.36
2018-08-25T07:42:36.433Z,11.41
2018-08-25T07:45:05.034Z,11.49
2018-08-25T07:47:33.554Z,11.34
2018-08-25T07:50:02.123Z,11.32
2018-08-25T07:52:30.605Z,11.30
2018-08-25T07:54:59.207Z,11.39
2018-08-25T07:57:27.981Z,11.57
2018-08-25T07:59:56.558Z,11.50
2018-08-25T08:02:25.245Z,11.48
2018-08-25T08:04:54.456Z,11.51
2018-08-25T08:07:23.051Z,11.80
2018-08-25T08:09:51.718Z,11.81
2018-08-25T08:12:20.306Z,12.04
2018-08-25T08:14:48.994Z,12.15
2018-08-25T08:17:17.599Z,12.24
2018-08-25T08:19:46.078Z,12.25
2018-08-25T08:22:14.608Z,12.38
2018-08-25T08:24:43.172Z,12.55
2018-08-25T08:27:11.809Z,12.56
2018-08-25T08:29:40.470Z,12.76
2018-08-25T08:32:09.165Z,12.69
2018-08-25T08:34:38.071Z,12.78
2018-08-25T08:37:07.376Z,12.74
2018-08-25T08:39:37.642Z,12.67
2018-08-25T08:42:06.151Z,12.85
2018-08-25T08:44:34.744Z,13.04
2018-08-25T08:47:03.530Z,13.28
2018-08-25T08:49:32.109Z,12.68
2018-08-25T08:52:00.694Z,12.71
2018-08-25T08:54:29.234Z,13.07
2018-08-25T08:56:58.063Z,13.15
2018-08-25T08:59:26.670Z,13.26
2018-08-25T09:01:55.169Z,13.32
2018-08-25T09:04:23.771Z,13.45
2018-08-25T09:06:52.438Z,13.53
2018-08-25T09:09:20.983Z,13.75
2018-08-25T09:11:49.551Z,13.77
2018-08-25T09:14:18.128Z,14.03
2018-08-25T09:16:46.697Z,14.38
2018-08-25T09:19:15.228Z,14.20
2018-08-25T09:21:43.907Z,14.19
2018-08-25T09:24:12.462Z,13.67
2018-08-25T09:26:41.048Z,13.55
2018-08-25T09:29:09.542Z,13.71
2018-08-25T09:31:38.085Z,14.01
2018-08-25T09:34:06.674Z,14.14
2018-08-25T09:36:35.497Z,13.70
2018-08-25T09:39:04.447Z,14.04
2018-08-25T09:41:33.301Z,14.25
2018-08-25T09:44:01.820Z,14.53
2018-08-25T09:46:30.781Z,14.69
2018-08-25T09:48:59.279Z,14.71
2018-08-25T09:51:28.013Z,15.20
2018-08-25T09:53:56.687Z,15.06
2018-08-25T09:56:25.179Z,15.09
2018-08-25T09:58:53.964Z,14.81
2018-08-25T10:01:27.959Z,14.82
2018-08-25T10:03:56.557Z,14.66
2018-08-25T10:06:25.306Z,15.57
2018-08-25T10:08:54.274Z,16.14
2018-08-25T10:11:23.337Z,16.52
2018-08-25T10:13:51.892Z,16.06
2018-08-25T10:16:20.561Z,15.87
2018-08-25T10:18:49.153Z,15.72
2018-08-25T10:21:17.684Z,16.03
2018-08-25T10:23:46.254Z,15.74
2018-08-25T10:26:14.850Z,15.55
2018-08-25T10:28:43.463Z,15.68
2018-08-25T10:31:11.962Z,15.61
2018-08-25T10:33:40.584Z,15.69
2018-08-25T10:36:09.077Z,15.27
2018-08-25T10:38:37.694Z,15.53
2018-08-25T10:41:06.582Z,15.59
2018-08-25T10:43:35.169Z,15.94
2018-08-25T10:46:03.696Z,16.10
2018-08-25T10:48:32.238Z,16.21
2018-08-25T10:51:01.513Z,16.22
2018-08-25T10:53:30.024Z,16.81
2018-08-25T10:55:58.887Z,17.56
2018-08-25T10:58:27.364Z,17.98
2018-08-25T11:00:56.006Z,17.43
2018-08-25T11:03:24.425Z,17.12
2018-08-25T11:05:52.929Z,17.67
2018-08-25T11:08:21.406Z,17.85
2018-08-25T11:10:49.953Z,17.49
2018-08-25T11:13:18.495Z,17.41
2018-08-25T11:15:47.026Z,17.57
2018-08-25T11:18:15.501Z,16.55
2018-08-25T11:20:44.082Z,16.22
2018-08-25T11:23:12.718Z,16.11
2018-08-25T11:25:41.349Z,15.94
2018-08-25T11:28:10.018Z,16.36
2018-08-25T11:30:38.617Z,16.32
2018-08-25T11:33:07.198Z,16.15
2018-08-25T11:35:35.802Z,15.85
2018-08-25T11:38:04.421Z,15.79
2018-08-25T11:40:32.951Z,15.75
2018-08-25T11:43:02.670Z,15.44
2018-08-25T11:45:31.458Z,15.84
2018-08-25T11:48:00.059Z,16.39
2018-08-25T11:50:28.758Z,16.84
2018-08-25T11:52:57.406Z,17.19
2018-08-25T11:55:25.978Z,16.75
2018-08-25T11:57:54.603Z,16.70
2018-08-25T12:00:23.185Z,16.83
2018-08-25T12:02:51.847Z,16.70
2018-08-25T12:05:20.356Z,16.07
2018-08-25T12:07:48.897Z,16.18
2018-08-25T12:10:18.005Z,16.93
2018-08-25T12:12:46.515Z,17.35
2018-08-25T12:15:15.155Z,17.15
2018-08-25T12:17:43.944Z,17.93
2018-08-25T12:20:12.572Z,18.14
2018-08-25T12:22:41.106Z,18.25
2018-08-25T12:25:09.977Z,18.08
2018-08-25T12:27:38.457Z,17.91
2018-08-25T12:30:07.532Z,17.05
2018-08-25T12:32:36.042Z,16.12
2018-08-25T12:35:04.725Z,16.07
2018-08-25T12:37:33.270Z,15.49
2018-08-25T12:40:01.872Z,15.14
2018-08-25T12:42:30.349Z,14.78
2018-08-25T12:44:58.940Z,14.93
2018-08-25T12:47:28.060Z,15.36
2018-08-25T12:49:57.894Z,15.14
2018-08-25T12:52:26.465Z,14.87
2018-08-25T12:54:54.995Z,15.15
2018-08-25T12:57:23.719Z,14.94
2018-08-25T12:59:52.242Z,15.84
2018-08-25T13:02:21.040Z,16.65
2018-08-25T13:04:49.567Z,17.88
2018-08-25T13:07:18.054Z,18.25
2018-08-25T13:09:46.797Z,19.32
2018-08-25T13:12:15.286Z,19.43
2018-08-25T13:14:44.370Z,18.89
2018-08-25T13:17:12.921Z,19.60
2018-08-25T13:19:41.489Z,21.47
2018-08-25T13:22:10.182Z,19.45
2018-08-25T13:24:38.717Z,20.54
2018-08-25T13:27:07.314Z,22.88
2018-08-25T13:29:35.825Z,22.53
2018-08-25T13:32:06.986Z,22.36
2018-08-25T13:34:35.472Z,21.50
2018-08-25T13:37:04.076Z,18.46
2018-08-25T13:39:33.666Z,17.21
2018-08-25T13:42:02.157Z,17.03
2018-08-25T13:44:30.790Z,16.18
2018-08-25T13:46:59.344Z,13.28
2018-08-25T13:49:28.671Z,11.70
2018-08-25T13:51:57.179Z,11.48
2018-08-25T13:54:25.817Z,11.54
2018-08-25T13:56:54.313Z,11.70
2018-08-25T13:59:22.842Z,11.80
2018-08-25T14:01:51.439Z,11.96
2018-08-25T14:04:20.131Z,12.11
2018-08-25T14:06:48.673Z,12.41
2018-08-25T14:09:17.273Z,12.76
2018-08-25T14:11:45.748Z,13.21
2018-08-25T14:14:14.412Z,13.47
2018-08-25T14:16:42.943Z,14.03
2018-08-25T14:19:11.528Z,14.47
2018-08-25T14:21:40.097Z,15.49
2018-08-25T14:24:08.624Z,16.22
2018-08-25T14:26:37.224Z,15.54
2018-08-25T14:29:05.974Z,15.67
2018-08-25T14:31:34.467Z,14.72
2018-08-25T14:34:03.515Z,14.34
2018-08-25T14:36:32.075Z,14.42
2018-08-25T14:39:00.681Z,14.04
2018-08-25T14:41:29.289Z,13.59
2018-08-25T14:43:58.328Z,13.19
2018-08-25T14:46:26.848Z,13.00
2018-08-25T14:48:55.332Z,12.83
2018-08-25T14:51:23.843Z,12.87
2018-08-25T14:53:52.374Z,12.93
2018-08-25T14:56:20.917Z,12.96
2018-08-25T14:58:49.435Z,13.00
2018-08-25T15:01:18.046Z,12.89
2018-08-25T15:03:46.617Z,13.26
2018-08-25T15:06:15.190Z,13.32
2018-08-25T15:08:43.778Z,13.53
2018-08-25T15:11:12.293Z,13.57
2018-08-25T15:13:40.947Z,13.24
2018-08-25T15:16:09.552Z,13.34
2018-08-25T15:18:38.088Z,13.40
2018-08-25T15:21:06.819Z,13.39
2018-08-25T15:23:35.508Z,13.17
2018-08-25T15:26:05.009Z,13.30
2018-08-25T15:28:33.798Z,13.78
2018-08-25T15:31:02.714Z,14.87
2018-08-25T15:33:31.437Z,16.69
2018-08-25T15:35:59.932Z,18.74
2018-08-25T15:38:28.535Z,18.65
2018-08-25T15:40:57.001Z,19.53
2018-08-25T15:43:25.545Z,19.43
2018-08-25T15:45:54.176Z,20.66
2018-08-25T15:48:22.825Z,19.38
2018-08-25T15:50:51.373Z,19.09
2018-08-25T15:53:19.898Z,21.37
2018-08-25T15:55:48.517Z,19.61
2018-08-25T15:58:17.067Z,19.30
2018-08-25T16:00:45.628Z,18.20
2018-08-25T16:03:14.150Z,17.79
2018-08-25T16:05:42.875Z,17.13
2018-08-25T16:08:11.671Z,16.19
2018-08-25T16:10:40.224Z,15.21
2018-08-25T16:13:08.808Z,14.41
2018-08-25T16:15:37.847Z,14.03
2018-08-25T16:18:06.476Z,14.05
2018-08-25T16:20:35.156Z,13.50
2018-08-25T16:23:03.910Z,13.39
2018-08-25T16:25:32.868Z,12.99
2018-08-25T16:28:01.341Z,13.23
2018-08-25T16:30:29.861Z,13.01
2018-08-25T16:32:58.361Z,12.97
2018-08-25T16:35:26.874Z,13.07
2018-08-25T16:37:55.447Z,13.13
2018-08-25T16:40:24.373Z,14.02
2018-08-25T16:42:52.911Z,15.66
2018-08-25T16:45:21.409Z,15.46
2018-08-25T16:47:49.925Z,16.32
2018-08-25T16:50:18.410Z,16.03
2018-08-25T16:52:47.141Z,17.89
2018-08-25T16:55:15.742Z,17.99
2018-08-25T16:57:44.256Z,19.17
2018-08-25T17:00:12.861Z,18.07
2018-08-25T17:02:41.372Z,18.48
2018-08-25T17:05:09.965Z,20.26
2018-08-25T17:07:38.585Z,19.79
2018-08-25T17:10:07.252Z,20.85
2018-08-25T17:12:35.909Z,19.56
2018-08-25T17:15:05.143Z,19.46
2018-08-25T17:17:33.771Z,17.33
2018-08-25T17:20:02.523Z,18.84
2018-08-25T17:22:31.439Z,18.04
2018-08-25T17:24:59.981Z,17.04
2018-08-25T17:27:28.662Z,17.55
2018-08-25T17:29:57.703Z,19.14
2018-08-25T17:32:27.297Z,19.55
2018-08-25T17:34:55.855Z,18.68
2018-08-25T17:37:24.593Z,17.79
2018-08-25T17:39:53.247Z,16.48
2018-08-25T17:42:22.070Z,16.10
2018-08-25T17:44:50.610Z,15.53
2018-08-25T17:47:19.211Z,15.21
2018-08-25T17:49:47.761Z,14.87
2018-08-25T17:52:16.422Z,14.65
2018-08-25T17:54:44.932Z,14.46
2018-08-25T17:57:13.771Z,14.33
2018-08-25T17:59:42.302Z,13.88
2018-08-25T18:02:10.827Z,13.42
2018-08-25T18:04:39.369Z,13.13
2018-08-25T18:07:07.944Z,13.10
2018-08-25T18:09:36.774Z,12.71
2018-08-25T18:12:05.396Z,12.50
2018-08-25T18:14:34.006Z,12.36
2018-08-25T18:17:02.751Z,12.32
2018-08-25T18:19:31.365Z,12.31
2018-08-25T18:21:59.960Z,12.12
2018-08-25T18:24:28.475Z,12.09
2018-08-25T18:26:57.412Z,12.16
2018-08-25T18:29:26.417Z,12.23
2018-08-25T18:31:55.014Z,12.29
2018-08-25T18:34:23.581Z,12.31
2018-08-25T18:36:52.499Z,12.21
2018-08-25T18:39:20.984Z,12.22
2018-08-25T18:41:49.483Z,12.26
2018-08-25T18:44:17.989Z,11.86
2018-08-25T18:46:46.535Z,11.69
2018-08-25T18:49:15.101Z,11.63
2018-08-25T18:51:43.618Z,11.57
2018-08-25T18:54:12.140Z,11.55
2018-08-25T18:56:40.628Z,11.43
2018-08-25T18:59:09.276Z,11.38
2018-08-25T19:01:37.864Z,11.32
2018-08-25T19:04:06.783Z,11.29
2018-08-25T19:06:35.333Z,11.41
2018-08-25T19:09:05.153Z,11.54
2018-08-25T19:11:34.062Z,11.46
2018-08-25T19:14:02.637Z,11.45
2018-08-25T19:16:31.170Z,11.38
2018-08-25T19:18:59.767Z,11.36
2018-08-25T19:21:28.276Z,11.45
2018-08-25T19:23:56.797Z,11.36
2018-08-25T19:26:25.287Z,11.29
2018-08-25T19:28:53.888Z,11.27
2018-08-25T19:31:22.478Z,11.26
2018-08-25T19:33:51.252Z,11.19
2018-08-25T19:36:20.091Z,11.22
2018-08-25T19:38:48.689Z,11.06
2018-08-25T19:41:18.159Z,11.16
2018-08-25T19:43:46.774Z,11.10
2018-08-25T19:46:15.355Z,11.10
2018-08-25T19:48:43.948Z,10.97
2018-08-25T19:51:12.894Z,10.99
2018-08-25T19:53:41.461Z,10.87
2018-08-25T19:56:10.171Z,10.99
2018-08-25T19:58:38.917Z,10.96
2018-08-25T20:01:07.562Z,10.91
2018-08-25T20:03:36.051Z,10.90
2018-08-25T20:06:04.644Z,10.88
2018-08-25T20:08:33.119Z,10.83
2018-08-25T20:11:01.782Z,10.80
2018-08-25T20:13:30.487Z,10.76
2018-08-25T20:15:59.012Z,10.84
2018-08-25T20:18:27.629Z,10.81
2018-08-25T20:20:56.433Z,10.77
2018-08-25T20:23:24.884Z,10.71
2018-08-25T20:25:53.426Z,10.71
2018-08-25T20:28:21.916Z,10.69
2018-08-25T20:30:50.780Z,10.72
2018-08-25T20:33:19.248Z,10.63
2018-08-25T20:35:48.017Z,10.59
2018-08-25T20:38:16.453Z,10.56
2018-08-25T20:40:45.026Z,10.54
2018-08-25T20:43:13.571Z,10.53
2018-08-25T20:45:42.167Z,10.60
2018-08-25T20:48:10.767Z,10.62
2018-08-25T20:50:39.652Z,10.56
2018-08-25T20:53:08.484Z,10.48
2018-08-25T20:55:37.160Z,10.49
2018-08-25T20:58:06.265Z,10.50
2018-08-25T21:00:34.890Z,10.55
2018-08-25T21:03:03.466Z,10.58
2018-08-25T21:05:31.964Z,10.56
2018-08-25T21:08:00.509Z,10.58
2018-08-25T21:10:29.068Z,10.57
2018-08-25T21:12:57.617Z,10.51
2018-08-25T21:15:26.185Z,10.44
2018-08-25T21:17:55.353Z,10.52
2018-08-25T21:20:23.874Z,10.40
2018-08-25T21:22:52.404Z,10.41
2018-08-25T21:25:21.258Z,10.37
2018-08-25T21:27:49.769Z,10.47
2018-08-25T21:30:18.516Z,10.45
2018-08-25T21:32:47.193Z,10.40
2018-08-25T21:35:15.705Z,10.39
2018-08-25T21:37:44.436Z,10.38
2018-08-25T21:40:12.952Z,10.33
2018-08-25T21:42:41.677Z,10.31
2018-08-25T21:45:10.313Z,10.30
2018-08-25T21:47:38.906Z,10.31
2018-08-25T21:50:07.970Z,10.22
2018-08-25T21:52:36.511Z,10.18
2018-08-25T21:55:05.053Z,10.10
2018-08-25T21:57:33.664Z,10.07
2018-08-25T22:00:02.352Z,10.03
2018-08-25T22:02:31.150Z,10.04
2018-08-25T22:04:59.678Z,10.14
2018-08-25T22:07:28.305Z,10.04
2018-08-25T22:09:56.897Z,10.11
2018-08-25T22:12:25.396Z,10.04
2018-08-25T22:14:54.110Z,10.12
2018-08-25T22:17:22.690Z,10.04
2018-08-25T22:19:51.163Z,10.09
2018-08-25T22:22:19.696Z,10.07
2018-08-25T22:24:48.380Z,9.99
2018-08-25T22:27:17.456Z,9.98
2018-08-25T22:29:46.073Z,10.01
2018-08-25T22:32:15.832Z,10.06
2018-08-25T22:34:44.295Z,10.02
2018-08-25T22:37:13.192Z,10.00
2018-08-25T22:39:41.714Z,9.95
2018-08-25T22:42:10.203Z,10.07
2018-08-25T22:44:38.734Z,9.95
2018-08-25T22:47:07.278Z,9.98
2018-08-25T22:49:35.817Z,9.96
2018-08-25T22:52:04.473Z,9.95
2018-08-25T22:54:32.977Z,9.95
2018-08-25T22:57:01.555Z,9.95
2018-08-25T22:59:30.465Z,9.94
2018-08-25T23:01:59.040Z,9.86
2018-08-25T23:04:27.923Z,9.76
2018-08-25T23:06:56.447Z,9.74
2018-08-25T23:09:25.523Z,9.79
2018-08-25T23:11:54.125Z,9.76
2018-08-25T23:14:22.945Z,9.71
2018-08-25T23:16:51.419Z,9.66
2018-08-25T23:19:19.941Z,9.63
2018-08-25T23:21:48.575Z,9.56
2018-08-25T23:24:17.103Z,9.53
2018-08-25T23:26:45.590Z,9.56
2018-08-25T23:29:14.092Z,9.62
2018-08-25T23:31:42.738Z,9.66
2018-08-25T23:34:11.227Z,9.64
2018-08-25T23:36:39.832Z,9.56
2018-08-25T23:39:09.460Z,9.53
2018-08-25T23:41:38.040Z,9.40
2018-08-25T23:44:06.709Z,9.38
2018-08-25T23:46:35.305Z,9.35
2018-08-25T23:49:04.090Z,9.32
2018-08-25T23:51:32.678Z,9.21
2018-08-25T23:54:01.232Z,9.21
2018-08-25T23:56:29.746Z,9.30
2018-08-25T23:58:58.307Z,9.17
